Time;durP1;ratioP1;P1;durP2;ratioP2;P2;SDS_P1;SDS_P2;PMS_P1;PMS_P2;Temp;Humidity;BMP_temperature;BMP_pressure;BME280_temperature;BME280_humidity;BME280_pressure;Samples;Min_cycle;Max_cycle;Signal;HPM_P1;HPM_P2
2022/06/17 00:00:11;;;;;;;;;9.50;9.50;;;;;;;;5001858;28;45293;-72
2022/06/17 00:02:37;;;;;;;;;8.00;8.00;;;;;;;;5025977;28;45418;-72
2022/06/17 00:05:02;;;;;;;;;9.00;9.00;;;;;;;;5009997;28;45557;-72
2022/06/17 00:07:27;;;;;;;;;8.75;8.75;;;;;;;;5008778;28;45479;-72
2022/06/17 00:09:52;;;;;;;;;7.67;7.67;;;;;;;;5008458;28;45353;-73
2022/06/17 00:12:18;;;;;;;;;8.00;8.00;;;;;;;;5011292;28;46113;-72
2022/06/17 00:17:26;;;;;;;;;8.50;7.25;;;;;;;;5008787;28;45340;-72
2022/06/17 00:19:52;;;;;;;;;7.00;7.00;;;;;;;;5015591;28;45443;-72
2022/06/17 00:22:17;;;;;;;;;7.00;7.00;;;;;;;;5008901;28;45482;-72
2022/06/17 00:24:42;;;;;;;;;9.00;9.00;;;;;;;;5005935;28;45386;-71
2022/06/17 00:27:10;;;;;;;;;10.00;10.00;;;;;;;;5002589;28;45362;-72
2022/06/17 00:29:35;;;;;;;;;7.50;7.50;;;;;;;;5001139;28;45321;-72
2022/06/17 00:32:00;;;;;;;;;7.75;7.25;;;;;;;;5006216;28;45538;-72
2022/06/17 00:34:25;;;;;;;;;7.25;7.25;;;;;;;;5008158;28;45333;-72
2022/06/17 00:36:52;;;;;;;;;8.00;8.00;;;;;;;;5017164;28;45344;-72
2022/06/17 00:39:23;;;;;;;;;6.33;6.33;;;;;;;;5014980;28;45391;-71
2022/06/17 00:41:50;;;;;;;;;7.25;7.25;;;;;;;;5019160;28;47044;-72
2022/06/17 00:44:24;;;;;;;;;7.00;7.00;;;;;;;;5009687;28;45417;-72
2022/06/17 00:46:55;;;;;;;;;8.67;7.67;;;;;;;;5001222;28;45475;-72
2022/06/17 00:49:26;;;;;;;;;9.25;7.75;;;;;;;;5007005;28;45293;-72
2022/06/17 00:51:59;;;;;;;;;8.00;8.00;;;;;;;;5013046;28;45590;-72
2022/06/17 00:54:31;;;;;;;;;8.25;8.25;;;;;;;;5011305;28;45534;-71
2022/06/17 00:56:56;;;;;;;;;8.50;8.00;;;;;;;;5011703;28;45359;-72
2022/06/17 00:59:23;;;;;;;;;8.50;8.50;;;;;;;;5018063;28;45538;-72
2022/06/17 01:02:03;;;;;;;;;6.25;6.25;;;;;;;;5003273;28;45481;-72
2022/06/17 01:04:34;;;;;;;;;9.00;9.00;;;;;;;;5005748;28;45474;-72
2022/06/17 01:07:02;;;;;;;;;7.33;7.33;;;;;;;;5018465;28;45305;-72
2022/06/17 01:12:16;;;;;;;;;7.00;7.00;;;;;;;;5007398;28;45831;-72
2022/06/17 01:14:42;;;;;;;;;7.33;7.33;;;;;;;;5011181;28;45460;-72
2022/06/17 01:17:09;;;;;;;;;7.50;7.50;;;;;;;;5000901;28;45489;-72
2022/06/17 01:20:01;;;;;;;;;6.75;6.75;;;;;;;;5001118;28;45628;-72
2022/06/17 01:22:26;;;;;;;;;10.00;9.00;;;;;;;;4999981;28;47179;-72
2022/06/17 01:25:27;;;;;;;;;5.75;5.75;;;;;;;;5013777;28;45458;-72
2022/06/17 01:27:54;;;;;;;;;8.00;7.33;;;;;;;;4952764;28;45470;-72
2022/06/17 01:30:21;;;;;;;;;9.00;8.00;;;;;;;;4951714;28;45603;-72
2022/06/17 01:32:53;;;;;;;;;8.25;8.25;;;;;;;;4952712;28;45425;-72
2022/06/17 01:35:19;;;;;;;;;7.00;7.00;;;;;;;;4952723;28;45476;-72
2022/06/17 01:37:45;;;;;;;;;8.25;8.25;;;;;;;;4951293;28;45476;-72
2022/06/17 01:40:10;;;;;;;;;8.00;7.00;;;;;;;;4952268;28;45462;-72
2022/06/17 01:42:37;;;;;;;;;8.00;6.75;;;;;;;;4949618;28;46267;-72
2022/06/17 01:45:02;;;;;;;;;7.00;7.00;;;;;;;;4952260;28;45480;-72
2022/06/17 01:47:28;;;;;;;;;8.25;7.25;;;;;;;;4936975;28;45631;-72
2022/06/17 01:49:59;;;;;;;;;8.25;8.25;;;;;;;;4952021;28;45832;-72
2022/06/17 01:52:31;;;;;;;;;9.00;9.00;;;;;;;;4950530;28;46571;-72
2022/06/17 01:55:16;;;;;;;;;9.00;8.25;;;;;;;;4949883;28;45363;-72
2022/06/17 01:58:03;;;;;;;;;6.75;6.75;;;;;;;;4949375;28;45493;-72
2022/06/17 02:00:28;;;;;;;;;7.75;7.75;;;;;;;;4953268;28;45447;-72
2022/06/17 02:02:56;;;;;;;;;8.00;8.00;;;;;;;;5013565;28;45506;-71
2022/06/17 02:05:23;;;;;;;;;7.00;7.00;;;;;;;;5020210;28;45485;-72
2022/06/17 02:07:48;;;;;;;;;7.75;7.75;;;;;;;;5010691;28;45463;-71
2022/06/17 02:10:14;;;;;;;;;8.00;8.00;;;;;;;;5011289;28;45452;-72
2022/06/17 02:12:40;;;;;;;;;7.75;7.75;;;;;;;;5020745;28;46115;-72
2022/06/17 02:15:06;;;;;;;;;8.50;8.50;;;;;;;;5014765;28;45420;-72
2022/06/17 02:17:34;;;;;;;;;8.75;7.25;;;;;;;;5014266;28;45507;-73
2022/06/17 02:20:00;;;;;;;;;10.00;9.00;;;;;;;;5015006;28;45431;-72
2022/06/17 02:22:29;;;;;;;;;8.00;7.25;;;;;;;;5008976;28;46202;-73
2022/06/17 02:24:56;;;;;;;;;7.75;7.25;;;;;;;;5007868;28;46593;-72
2022/06/17 02:27:22;;;;;;;;;9.33;8.00;;;;;;;;5015737;28;45560;-72
2022/06/17 02:29:49;;;;;;;;;9.75;9.00;;;;;;;;4999521;28;45519;-73
2022/06/17 02:32:14;;;;;;;;;7.33;7.33;;;;;;;;5011513;28;46086;-72
2022/06/17 02:34:53;;;;;;;;;8.00;8.00;;;;;;;;5010086;28;45484;-73
2022/06/17 02:37:19;;;;;;;;;6.33;6.33;;;;;;;;5012481;28;45531;-72
2022/06/17 02:39:46;;;;;;;;;9.00;9.00;;;;;;;;5009347;28;45432;-72
2022/06/17 02:42:24;;;;;;;;;8.00;8.00;;;;;;;;5008694;28;45308;-73
2022/06/17 02:44:52;;;;;;;;;6.25;6.25;;;;;;;;5017033;28;45304;-73
2022/06/17 02:47:17;;;;;;;;;8.00;8.00;;;;;;;;5003203;28;45517;-73
2022/06/17 02:49:42;;;;;;;;;7.00;5.33;;;;;;;;5008572;28;45342;-73
2022/06/17 02:52:12;;;;;;;;;7.00;7.00;;;;;;;;5016067;28;46303;-73
2022/06/17 02:54:42;;;;;;;;;8.25;8.25;;;;;;;;5011857;28;45970;-72
2022/06/17 02:57:09;;;;;;;;;9.25;9.25;;;;;;;;5016257;28;45315;-72
2022/06/17 02:59:34;;;;;;;;;7.50;7.50;;;;;;;;5010319;28;45322;-73
2022/06/17 03:02:02;;;;;;;;;7.00;7.00;;;;;;;;5006482;28;46027;-72
2022/06/17 03:04:30;;;;;;;;;7.50;7.50;;;;;;;;5004030;28;45506;-72
2022/06/17 03:06:55;;;;;;;;;8.00;7.75;;;;;;;;5009082;28;45506;-73
2022/06/17 03:09:25;;;;;;;;;8.25;7.50;;;;;;;;5013437;28;45462;-72
2022/06/17 03:12:00;;;;;;;;;6.33;6.33;;;;;;;;5021944;28;47364;-72
2022/06/17 03:14:29;;;;;;;;;7.33;7.33;;;;;;;;5009029;28;45666;-72
2022/06/17 03:16:57;;;;;;;;;7.00;6.67;;;;;;;;5011302;28;46165;-73
2022/06/17 03:19:23;;;;;;;;;8.25;7.50;;;;;;;;5004496;28;45425;-72
2022/06/17 03:21:49;;;;;;;;;7.33;7.33;;;;;;;;5010168;28;47053;-73
2022/06/17 03:24:17;;;;;;;;;8.67;7.67;;;;;;;;5019884;28;45791;-74
2022/06/17 03:26:45;;;;;;;;;7.67;7.67;;;;;;;;5014933;28;45483;-73
2022/06/17 03:29:12;;;;;;;;;7.33;6.00;;;;;;;;4999969;28;45416;-72
2022/06/17 03:31:40;;;;;;;;;8.00;8.00;;;;;;;;5004925;28;45466;-72
2022/06/17 03:34:07;;;;;;;;;7.50;7.00;;;;;;;;5014357;28;45482;-72
2022/06/17 03:36:37;;;;;;;;;9.00;8.00;;;;;;;;5015273;28;45373;-72
2022/06/17 03:39:05;;;;;;;;;8.33;7.00;;;;;;;;5015601;28;45313;-72
2022/06/17 03:41:30;;;;;;;;;8.00;8.00;;;;;;;;5001710;28;45407;-72
2022/06/17 03:44:09;;;;;;;;;7.00;7.00;;;;;;;;5012186;28;45431;-72
2022/06/17 03:46:43;;;;;;;;;7.33;7.33;;;;;;;;5013791;28;45533;-72
2022/06/17 03:49:35;;;;;;;;;8.67;7.33;;;;;;;;5008962;28;45375;-72
2022/06/17 03:52:05;;;;;;;;;7.00;7.00;;;;;;;;5043669;28;48113;-72
2022/06/17 03:54:31;;;;;;;;;4.00;4.00;;;;;;;;5021458;28;45405;-72
2022/06/17 03:56:56;;;;;;;;;6.00;6.00;;;;;;;;5012505;28;45226;-73
2022/06/17 03:59:24;;;;;;;;;6.00;6.00;;;;;;;;5011295;28;45491;-72
2022/06/17 04:01:55;;;;;;;;;10.00;8.00;;;;;;;;5010328;28;49443;-72
2022/06/17 04:04:25;;;;;;;;;6.33;6.33;;;;;;;;5008763;28;45482;-72
2022/06/17 04:06:53;;;;;;;;;8.67;8.67;;;;;;;;5010392;28;45297;-72
2022/06/17 04:09:20;;;;;;;;;8.33;8.33;;;;;;;;5012715;28;45456;-72
2022/06/17 04:11:47;;;;;;;;;7.67;7.67;;;;;;;;5001409;28;46082;-73
2022/06/17 04:14:21;;;;;;;;;8.00;7.00;;;;;;;;5013156;28;45397;-72
2022/06/17 04:16:53;;;;;;;;;6.50;6.50;;;;;;;;5006876;28;45525;-73
2022/06/17 04:19:21;;;;;;;;;8.75;8.00;;;;;;;;5009053;28;45565;-72
2022/06/17 04:21:47;;;;;;;;;6.75;6.75;;;;;;;;5015615;28;45586;-72
2022/06/17 04:24:15;;;;;;;;;7.25;7.00;;;;;;;;5005797;28;45527;-73
2022/06/17 04:26:42;;;;;;;;;10.00;7.67;;;;;;;;5000283;28;45260;-72
2022/06/17 04:29:11;;;;;;;;;8.33;8.00;;;;;;;;4998194;28;45376;-72
2022/06/17 04:31:36;;;;;;;;;6.67;5.67;;;;;;;;5004585;28;46185;-72
2022/06/17 04:34:13;;;;;;;;;5.75;5.75;;;;;;;;5008893;28;45364;-72
2022/06/17 04:36:50;;;;;;;;;6.00;6.00;;;;;;;;5010023;28;45495;-72
2022/06/17 04:39:26;;;;;;;;;6.00;6.00;;;;;;;;5004145;28;45567;-72
2022/06/17 04:41:53;;;;;;;;;7.33;5.33;;;;;;;;5012378;28;46499;-73
2022/06/17 04:44:19;;;;;;;;;9.00;8.25;;;;;;;;5009889;28;45385;-72
2022/06/17 04:46:51;;;;;;;;;7.00;6.67;;;;;;;;5007908;28;45521;-72
2022/06/17 04:49:21;;;;;;;;;8.75;8.50;;;;;;;;5008767;28;45460;-72
2022/06/17 04:51:47;;;;;;;;;6.00;6.00;;;;;;;;5016573;28;46429;-72
2022/06/17 04:54:12;;;;;;;;;7.67;7.33;;;;;;;;5003514;28;45305;-73
2022/06/17 04:56:40;;;;;;;;;6.00;6.00;;;;;;;;5003060;28;45298;-73
2022/06/17 04:59:16;;;;;;;;;8.00;8.00;;;;;;;;5013250;28;45567;-72
2022/06/17 05:01:41;;;;;;;;;7.75;6.00;;;;;;;;5007629;28;46183;-72
2022/06/17 05:04:07;;;;;;;;;6.25;6.25;;;;;;;;5008053;28;45411;-72
2022/06/17 05:06:32;;;;;;;;;7.00;7.00;;;;;;;;5010132;28;45440;-72
2022/06/17 05:09:04;;;;;;;;;7.00;7.00;;;;;;;;5008059;28;45380;-72
2022/06/17 05:11:34;;;;;;;;;5.00;5.00;;;;;;;;5001424;28;46303;-73
2022/06/17 05:14:05;;;;;;;;;7.67;6.00;;;;;;;;5012944;28;45643;-73
2022/06/17 05:16:30;;;;;;;;;7.00;6.67;;;;;;;;5008747;28;45463;-72
2022/06/17 05:18:55;;;;;;;;;9.00;7.33;;;;;;;;5019232;28;45479;-73
2022/06/17 05:21:24;;;;;;;;;7.00;6.67;;;;;;;;5017988;28;47129;-73
2022/06/17 05:23:51;;;;;;;;;7.33;7.00;;;;;;;;5015695;28;45311;-72
2022/06/17 05:26:17;;;;;;;;;8.75;8.75;;;;;;;;5009206;28;45284;-72
2022/06/17 05:28:42;;;;;;;;;7.00;6.00;;;;;;;;5007546;28;45430;-72
2022/06/17 05:31:11;;;;;;;;;6.67;6.33;;;;;;;;5012751;28;45473;-72
2022/06/17 05:33:37;;;;;;;;;8.33;8.33;;;;;;;;5012260;28;45400;-71
2022/06/17 05:36:02;;;;;;;;;6.00;4.67;;;;;;;;5004722;28;45317;-72
2022/06/17 05:38:29;;;;;;;;;6.00;6.00;;;;;;;;5007797;28;45499;-72
2022/06/17 05:40:54;;;;;;;;;7.00;7.00;;;;;;;;5008645;28;47094;-72
2022/06/17 05:43:19;;;;;;;;;6.00;6.00;;;;;;;;5017621;28;45491;-72
2022/06/17 05:45:44;;;;;;;;;7.33;6.00;;;;;;;;5011549;28;45519;-72
2022/06/17 05:48:10;;;;;;;;;7.75;7.75;;;;;;;;5006595;28;45547;-72
2022/06/17 05:50:35;;;;;;;;;7.00;7.00;;;;;;;;5010908;28;46016;-72
2022/06/17 05:53:01;;;;;;;;;9.00;9.00;;;;;;;;5010998;28;45453;-72
2022/06/17 05:55:29;;;;;;;;;6.00;6.00;;;;;;;;5009379;28;45460;-72
2022/06/17 05:57:55;;;;;;;;;5.67;5.67;;;;;;;;5010148;28;45506;-72
2022/06/17 06:00:21;;;;;;;;;6.33;6.33;;;;;;;;5000574;28;46048;-72
2022/06/17 06:02:46;;;;;;;;;5.00;5.00;;;;;;;;5017115;28;45373;-73
2022/06/17 06:05:13;;;;;;;;;8.33;8.33;;;;;;;;5012567;28;45478;-72
2022/06/17 06:07:38;;;;;;;;;8.00;8.00;;;;;;;;5017871;28;45395;-72
2022/06/17 06:10:03;;;;;;;;;6.00;5.67;;;;;;;;5010923;28;45405;-72
2022/06/17 06:15:12;;;;;;;;;5.67;5.67;;;;;;;;5019780;28;45435;-73
2022/06/17 06:17:38;;;;;;;;;9.00;9.00;;;;;;;;5004030;28;45503;-72
2022/06/17 06:20:03;;;;;;;;;6.33;6.33;;;;;;;;5004625;28;46001;-72
2022/06/17 06:22:28;;;;;;;;;8.50;8.50;;;;;;;;5010700;28;45482;-72
2022/06/17 06:24:53;;;;;;;;;6.00;6.00;;;;;;;;5014985;28;45407;-72
2022/06/17 06:27:19;;;;;;;;;7.00;7.00;;;;;;;;5012394;28;45480;-72
2022/06/17 06:29:45;;;;;;;;;7.50;7.50;;;;;;;;5022251;28;46166;-72
2022/06/17 06:32:10;;;;;;;;;7.00;6.00;;;;;;;;5008892;28;45427;-71
2022/06/17 06:34:36;;;;;;;;;7.25;7.00;;;;;;;;5009606;28;47114;-71
2022/06/17 06:37:01;;;;;;;;;6.50;6.50;;;;;;;;5015598;28;45356;-71
2022/06/17 06:39:26;;;;;;;;;7.00;6.00;;;;;;;;5012357;28;46199;-71
2022/06/17 06:41:51;;;;;;;;;6.67;6.67;;;;;;;;5014451;28;45409;-71
2022/06/17 06:44:16;;;;;;;;;5.00;5.00;;;;;;;;5017703;28;45425;-72
2022/06/17 06:46:42;;;;;;;;;7.33;7.33;;;;;;;;5014766;28;45357;-71
2022/06/17 06:49:07;;;;;;;;;7.00;6.00;;;;;;;;5014339;28;46214;-72
2022/06/17 06:51:32;;;;;;;;;7.00;7.00;;;;;;;;5013489;28;45434;-71
2022/06/17 06:53:57;;;;;;;;;6.33;6.33;;;;;;;;5008093;28;45422;-73
2022/06/17 06:56:23;;;;;;;;;6.50;6.50;;;;;;;;5015869;28;45345;-74
2022/06/17 06:58:49;;;;;;;;;6.00;6.00;;;;;;;;5016215;28;46994;-72
2022/06/17 07:01:15;;;;;;;;;8.75;8.75;;;;;;;;5016447;28;45828;-71
2022/06/17 07:03:40;;;;;;;;;6.00;6.00;;;;;;;;5010852;28;45321;-71
2022/06/17 07:06:05;;;;;;;;;6.00;6.00;;;;;;;;5009616;28;45600;-71
2022/06/17 07:08:31;;;;;;;;;5.50;5.50;;;;;;;;5012244;28;45959;-71
2022/06/17 07:10:59;;;;;;;;;7.00;6.67;;;;;;;;5012635;28;45443;-71
2022/06/17 07:13:25;;;;;;;;;7.33;7.00;;;;;;;;5021088;28;45452;-71
2022/06/17 07:15:54;;;;;;;;;6.50;6.50;;;;;;;;5009608;28;45542;-71
2022/06/17 07:18:21;;;;;;;;;6.75;6.75;;;;;;;;5016200;28;45820;-71
2022/06/17 07:20:48;;;;;;;;;7.00;7.00;;;;;;;;5010795;28;45475;-70
2022/06/17 07:23:14;;;;;;;;;6.33;6.33;;;;;;;;5013487;28;45409;-71
2022/06/17 07:25:40;;;;;;;;;6.75;6.75;;;;;;;;5007757;28;45588;-71
2022/06/17 07:28:05;;;;;;;;;6.50;6.50;;;;;;;;5010711;28;45490;-71
2022/06/17 07:30:31;;;;;;;;;8.00;7.33;;;;;;;;4999367;28;45451;-71
2022/06/17 07:32:56;;;;;;;;;6.67;6.67;;;;;;;;5022610;28;45477;-71
2022/06/17 07:35:22;;;;;;;;;8.00;6.00;;;;;;;;5008623;28;45530;-71
2022/06/17 07:40:32;;;;;;;;;6.00;6.00;;;;;;;;5008995;28;45446;-71
2022/06/17 07:42:58;;;;;;;;;8.75;8.75;;;;;;;;5016358;28;45298;-71
2022/06/17 07:45:24;;;;;;;;;5.00;5.00;;;;;;;;5011693;28;45478;-71
2022/06/17 07:47:50;;;;;;;;;8.67;6.67;;;;;;;;5014711;28;46219;-71
2022/06/17 07:50:18;;;;;;;;;7.00;6.00;;;;;;;;5013362;28;45303;-71
2022/06/17 07:52:43;;;;;;;;;7.75;6.00;;;;;;;;5005465;28;45417;-72
2022/06/17 07:55:09;;;;;;;;;6.00;6.00;;;;;;;;5016101;28;45662;-71
2022/06/17 07:57:34;;;;;;;;;5.00;5.00;;;;;;;;5010798;28;46219;-71
2022/06/17 07:59:59;;;;;;;;;8.75;7.25;;;;;;;;5002850;28;45397;-72
2022/06/17 08:02:24;;;;;;;;;6.00;6.00;;;;;;;;4999655;28;45455;-71
2022/06/17 08:04:49;;;;;;;;;4.33;4.33;;;;;;;;5011926;28;45529;-71
2022/06/17 08:07:15;;;;;;;;;5.67;5.67;;;;;;;;5008269;28;46108;-71
2022/06/17 08:09:41;;;;;;;;;6.25;6.25;;;;;;;;5008534;28;45674;-71
2022/06/17 08:12:08;;;;;;;;;6.50;6.50;;;;;;;;5012518;28;45376;-71
2022/06/17 08:14:35;;;;;;;;;9.00;7.00;;;;;;;;5013638;28;45655;-71
2022/06/17 08:17:00;;;;;;;;;7.33;6.00;;;;;;;;5009456;28;46129;-71
2022/06/17 08:19:25;;;;;;;;;7.00;6.67;;;;;;;;5011737;28;45390;-70
2022/06/17 08:21:50;;;;;;;;;7.00;7.00;;;;;;;;5011302;28;45544;-71
2022/06/17 08:24:15;;;;;;;;;6.67;6.67;;;;;;;;5000928;28;45434;-71
2022/06/17 08:26:41;;;;;;;;;6.00;6.00;;;;;;;;5013869;28;48005;-71
2022/06/17 08:29:06;;;;;;;;;6.33;6.00;;;;;;;;5001009;28;45410;-71
2022/06/17 08:31:31;;;;;;;;;6.50;6.50;;;;;;;;5004519;28;45403;-71
2022/06/17 08:33:56;;;;;;;;;7.33;7.33;;;;;;;;5012531;28;45810;-71
2022/06/17 08:36:24;;;;;;;;;8.00;7.25;;;;;;;;5012869;28;45551;-71
2022/06/17 08:39:16;;;;;;;;;9.00;6.33;;;;;;;;5007723;28;48650;-71
2022/06/17 08:41:53;;;;;;;;;6.25;5.25;;;;;;;;5005813;28;45557;-72
2022/06/17 08:44:34;;;;;;;;;6.00;6.00;;;;;;;;5005201;28;45392;-71
2022/06/17 08:47:22;;;;;;;;;8.75;6.75;;;;;;;;5012060;28;46137;-71
2022/06/17 08:49:59;;;;;;;;;7.50;7.50;;;;;;;;4998724;28;45463;-72
2022/06/17 08:52:42;;;;;;;;;7.67;6.67;;;;;;;;5007784;28;45561;-72
2022/06/17 08:55:11;;;;;;;;;7.67;7.00;;;;;;;;5008911;28;45578;-71
2022/06/17 08:57:41;;;;;;;;;8.33;8.00;;;;;;;;5011440;28;46296;-72
2022/06/17 09:00:18;;;;;;;;;6.75;6.25;;;;;;;;5006738;28;45335;-72
2022/06/17 09:02:43;;;;;;;;;7.00;7.00;;;;;;;;5018203;28;45706;-73
2022/06/17 09:05:11;;;;;;;;;6.00;6.00;;;;;;;;5008028;28;45340;-72
2022/06/17 09:07:55;;;;;;;;;6.33;5.67;;;;;;;;5001124;28;47055;-72
2022/06/17 09:10:20;;;;;;;;;5.50;5.50;;;;;;;;4998897;28;45317;-72
2022/06/17 09:13:11;;;;;;;;;8.75;7.50;;;;;;;;5007555;28;45664;-72
2022/06/17 09:15:39;;;;;;;;;8.50;8.00;;;;;;;;5002230;28;45532;-72
2022/06/17 09:18:11;;;;;;;;;8.67;6.00;;;;;;;;5011107;28;47063;-72
2022/06/17 09:20:38;;;;;;;;;6.67;6.67;;;;;;;;5013267;28;45403;-72
2022/06/17 09:23:05;;;;;;;;;5.00;5.00;;;;;;;;5016770;28;45574;-72
2022/06/17 09:25:35;;;;;;;;;8.00;6.25;;;;;;;;5015972;28;45615;-72
2022/06/17 09:28:01;;;;;;;;;7.25;7.25;;;;;;;;5010647;28;45472;-72
2022/06/17 09:30:32;;;;;;;;;6.00;6.00;;;;;;;;5001217;28;45711;-72
2022/06/17 09:33:16;;;;;;;;;7.33;6.33;;;;;;;;5027491;28;45332;-72
2022/06/17 09:35:48;;;;;;;;;6.33;6.33;;;;;;;;5019147;28;45260;-72
2022/06/17 09:38:13;;;;;;;;;6.00;6.00;;;;;;;;5020437;28;45434;-72
2022/06/17 09:40:45;;;;;;;;;6.25;6.00;;;;;;;;5006034;28;45582;-72
2022/06/17 09:43:14;;;;;;;;;7.00;7.00;;;;;;;;5010347;28;45400;-72
2022/06/17 09:45:46;;;;;;;;;7.33;6.00;;;;;;;;5014667;28;45313;-72
2022/06/17 09:48:11;;;;;;;;;8.00;6.00;;;;;;;;5013433;28;46346;-72
2022/06/17 09:50:40;;;;;;;;;7.33;6.00;;;;;;;;5011806;28;45510;-72
2022/06/17 09:53:12;;;;;;;;;9.25;8.00;;;;;;;;5009235;28;45427;-72
2022/06/17 09:55:40;;;;;;;;;7.00;6.50;;;;;;;;5008847;28;45411;-72
2022/06/17 09:58:17;;;;;;;;;8.25;7.50;;;;;;;;5012794;28;46012;-72
2022/06/17 10:00:45;;;;;;;;;8.00;8.00;;;;;;;;4999709;28;45270;-72
2022/06/17 10:03:18;;;;;;;;;6.75;6.75;;;;;;;;5015982;28;45346;-72
2022/06/17 10:05:49;;;;;;;;;7.00;7.00;;;;;;;;5013054;28;45391;-72
2022/06/17 10:08:32;;;;;;;;;6.00;6.00;;;;;;;;5012639;28;46952;-72
2022/06/17 10:11:16;;;;;;;;;7.75;7.75;;;;;;;;5015680;28;45398;-72
2022/06/17 10:13:45;;;;;;;;;7.33;6.00;;;;;;;;5013798;28;45534;-73
2022/06/17 10:19:04;;;;;;;;;7.33;6.67;;;;;;;;5010976;28;47587;-73
2022/06/17 10:21:36;;;;;;;;;8.00;7.50;;;;;;;;5017077;28;45547;-72
2022/06/17 10:24:01;;;;;;;;;5.67;5.33;;;;;;;;5024251;28;45639;-72
2022/06/17 10:26:26;;;;;;;;;7.00;7.00;;;;;;;;5005136;28;45710;-73
2022/06/17 10:29:10;;;;;;;;;6.00;6.00;;;;;;;;5003405;28;46164;-72
2022/06/17 10:31:44;;;;;;;;;6.00;6.00;;;;;;;;5014584;28;45441;-72
2022/06/17 10:34:24;;;;;;;;;7.25;6.50;;;;;;;;5012511;28;45450;-70
2022/06/17 10:36:52;;;;;;;;;7.00;7.00;;;;;;;;5009811;28;45514;-70
2022/06/17 10:39:18;;;;;;;;;7.50;7.00;;;;;;;;5014476;28;45557;-71
2022/06/17 10:41:44;;;;;;;;;7.75;6.75;;;;;;;;5017396;28;45801;-71
2022/06/17 10:44:13;;;;;;;;;6.75;6.75;;;;;;;;5002724;28;45411;-71
2022/06/17 10:46:41;;;;;;;;;6.75;6.00;;;;;;;;5009868;28;45428;-71
2022/06/17 10:49:18;;;;;;;;;6.50;6.50;;;;;;;;5010023;28;46368;-71
2022/06/17 10:51:45;;;;;;;;;5.00;5.00;;;;;;;;4998376;28;45578;-71
2022/06/17 10:54:31;;;;;;;;;8.33;7.00;;;;;;;;5014146;28;45448;-71
2022/06/17 10:57:12;;;;;;;;;6.33;6.33;;;;;;;;5012579;28;45427;-72
2022/06/17 10:59:41;;;;;;;;;6.00;6.00;;;;;;;;5004095;28;45456;-70
2022/06/17 11:02:21;;;;;;;;;7.33;7.00;;;;;;;;5007490;28;45285;-71
2022/06/17 11:04:51;;;;;;;;;7.00;6.50;;;;;;;;5013321;28;45499;-71
2022/06/17 11:07:18;;;;;;;;;6.33;6.33;;;;;;;;5009595;28;45496;-71
2022/06/17 11:09:49;;;;;;;;;5.67;5.67;;;;;;;;5016629;28;45497;-72
2022/06/17 11:12:16;;;;;;;;;8.67;7.33;;;;;;;;5000647;28;45534;-70
2022/06/17 11:14:49;;;;;;;;;6.33;6.33;;;;;;;;5012068;28;45398;-71
2022/06/17 11:17:18;;;;;;;;;8.00;8.00;;;;;;;;5014221;28;45662;-70
2022/06/17 11:19:44;;;;;;;;;6.00;6.00;;;;;;;;5001826;28;46931;-69
2022/06/17 11:22:29;;;;;;;;;8.33;7.00;;;;;;;;5006762;28;45479;-69
2022/06/17 11:24:56;;;;;;;;;6.33;6.33;;;;;;;;5009356;28;45455;-71
2022/06/17 11:27:30;;;;;;;;;6.00;6.00;;;;;;;;5015300;28;45560;-71
2022/06/17 11:30:11;;;;;;;;;6.67;6.67;;;;;;;;4999056;28;46214;-72
2022/06/17 11:32:36;;;;;;;;;6.00;6.00;;;;;;;;5014267;28;45419;-70
2022/06/17 11:35:18;;;;;;;;;6.00;5.33;;;;;;;;5008246;28;45455;-72
2022/06/17 11:37:45;;;;;;;;;7.00;6.00;;;;;;;;5007403;28;45592;-70
2022/06/17 11:40:15;;;;;;;;;8.00;6.33;;;;;;;;5007005;28;46495;-71
2022/06/17 11:42:54;;;;;;;;;7.00;5.33;;;;;;;;5010846;28;45293;-71
2022/06/17 11:45:22;;;;;;;;;7.00;6.00;;;;;;;;5007952;28;45370;-71
2022/06/17 11:47:52;;;;;;;;;7.33;7.33;;;;;;;;5010681;28;45457;-71
2022/06/17 11:50:20;;;;;;;;;6.00;6.00;;;;;;;;5013070;28;46247;-71
2022/06/17 11:52:46;;;;;;;;;9.67;7.33;;;;;;;;5014065;28;45485;-70
2022/06/17 11:55:12;;;;;;;;;5.33;4.67;;;;;;;;5012739;28;45312;-70
2022/06/17 11:57:52;;;;;;;;;7.67;6.00;;;;;;;;5119094;27;46329;-69
2022/06/17 12:00:25;;;;;;;;;8.00;8.00;;;;;;;;5109447;27;45840;-71
2022/06/17 12:02:55;;;;;;;;;5.33;5.33;;;;;;;;5111461;27;45414;-72
2022/06/17 12:05:23;;;;;;;;;7.33;7.33;;;;;;;;5112068;27;45466;-71
2022/06/17 12:08:04;;;;;;;;;6.00;5.00;;;;;;;;5109068;27;46017;-71
2022/06/17 12:10:34;;;;;;;;;7.75;7.75;;;;;;;;5109076;27;45329;-71
2022/06/17 12:13:09;;;;;;;;;9.67;7.67;;;;;;;;5110558;27;45459;-71
2022/06/17 12:15:40;;;;;;;;;6.00;6.00;;;;;;;;5109961;27;45459;-72
2022/06/17 12:18:09;;;;;;;;;8.00;8.00;;;;;;;;5114077;27;45360;-72
2022/06/17 12:20:44;;;;;;;;;8.00;8.00;;;;;;;;5125245;27;45350;-72
2022/06/17 12:23:17;;;;;;;;;8.00;7.50;;;;;;;;5110616;27;45346;-71
2022/06/17 12:25:49;;;;;;;;;7.25;6.75;;;;;;;;5109036;27;45381;-71
2022/06/17 12:28:33;;;;;;;;;8.33;8.33;;;;;;;;5110592;27;46314;-70
2022/06/17 12:31:17;;;;;;;;;6.50;6.50;;;;;;;;5108606;27;45421;-71
2022/06/17 12:34:05;;;;;;;;;7.50;7.50;;;;;;;;5096336;27;45516;-71
2022/06/17 12:36:35;;;;;;;;;6.50;5.25;;;;;;;;5106779;27;46431;-71
2022/06/17 12:39:12;;;;;;;;;7.33;7.33;;;;;;;;5110049;27;46246;-71
2022/06/17 12:41:43;;;;;;;;;7.00;7.00;;;;;;;;5111135;27;45361;-71
2022/06/17 12:44:23;;;;;;;;;7.00;7.00;;;;;;;;5109602;27;48545;-71
2022/06/17 12:46:48;;;;;;;;;7.33;6.33;;;;;;;;5108237;27;45551;-71
2022/06/17 12:54:51;;;;;;;;;7.00;7.00;;;;;;;;5110093;27;45562;-71
2022/06/17 12:57:22;;;;;;;;;9.00;9.00;;;;;;;;5097682;27;45640;-71
2022/06/17 12:59:50;;;;;;;;;6.67;6.33;;;;;;;;5107451;27;46175;-71
2022/06/17 13:02:34;;;;;;;;;6.25;6.25;;;;;;;;5110665;27;45381;-71
2022/06/17 13:04:59;;;;;;;;;8.25;8.25;;;;;;;;5108244;27;45432;-71
2022/06/17 13:07:31;;;;;;;;;8.00;8.00;;;;;;;;5109746;27;45446;-71
2022/06/17 13:09:56;;;;;;;;;7.00;7.00;;;;;;;;5106574;27;45586;-71
2022/06/17 13:12:33;;;;;;;;;6.60;6.60;;;;;;;;5109822;27;45514;-71
2022/06/17 13:14:59;;;;;;;;;8.00;8.00;;;;;;;;5105273;27;45275;-71
2022/06/17 13:17:30;;;;;;;;;6.00;6.00;;;;;;;;5097537;27;45526;-71
2022/06/17 13:19:58;;;;;;;;;6.67;6.67;;;;;;;;5095717;27;46081;-71
2022/06/17 13:22:33;;;;;;;;;7.00;7.00;;;;;;;;5094285;27;45437;-71
2022/06/17 13:25:04;;;;;;;;;6.33;6.33;;;;;;;;5094361;27;45344;-71
2022/06/17 13:27:38;;;;;;;;;7.67;7.67;;;;;;;;5094729;27;45542;-71
2022/06/17 13:30:09;;;;;;;;;6.67;6.67;;;;;;;;5095824;27;46319;-71
2022/06/17 13:32:40;;;;;;;;;8.67;8.67;;;;;;;;5094968;27;45343;-71
2022/06/17 13:35:20;;;;;;;;;6.33;6.33;;;;;;;;5093820;27;45533;-71
2022/06/17 13:37:45;;;;;;;;;6.67;6.67;;;;;;;;5095517;27;45456;-70
2022/06/17 13:40:14;;;;;;;;;8.00;8.00;;;;;;;;5094320;27;46128;-71
2022/06/17 13:42:40;;;;;;;;;7.00;7.00;;;;;;;;5093859;27;45369;-70
2022/06/17 13:45:05;;;;;;;;;8.00;8.00;;;;;;;;5095944;27;46476;-71
2022/06/17 13:47:40;;;;;;;;;8.33;7.67;;;;;;;;5096034;27;45385;-71
2022/06/17 13:50:17;;;;;;;;;7.67;6.67;;;;;;;;5094257;27;45652;-71
2022/06/17 13:53:03;;;;;;;;;6.00;6.00;;;;;;;;5095855;27;45493;-71
2022/06/17 13:55:28;;;;;;;;;8.00;8.00;;;;;;;;5087235;27;45535;-71
2022/06/17 13:57:58;;;;;;;;;9.60;8.80;;;;;;;;5093747;27;45486;-70
2022/06/17 14:00:38;;;;;;;;;9.00;7.33;;;;;;;;5095091;27;46227;-71
2022/06/17 14:03:08;;;;;;;;;7.00;7.00;;;;;;;;5096791;27;45400;-71
2022/06/17 14:05:38;;;;;;;;;9.67;8.00;;;;;;;;5095909;27;45415;-71
2022/06/17 14:08:08;;;;;;;;;9.00;8.00;;;;;;;;5103005;27;45440;-71
2022/06/17 14:10:36;;;;;;;;;6.00;6.00;;;;;;;;5096523;27;45449;-70
2022/06/17 14:13:20;;;;;;;;;6.67;6.67;;;;;;;;5105475;27;45610;-73
2022/06/17 14:15:47;;;;;;;;;11.00;9.67;;;;;;;;5093660;27;45414;-73
2022/06/17 14:18:18;;;;;;;;;7.67;7.67;;;;;;;;5094645;27;45540;-73
2022/06/17 14:20:45;;;;;;;;;8.33;8.00;;;;;;;;5091577;27;46116;-72
2022/06/17 14:23:26;;;;;;;;;6.33;6.33;;;;;;;;5094398;27;45455;-76
2022/06/17 14:25:57;;;;;;;;;8.67;8.00;;;;;;;;5093203;27;45476;-75
2022/06/17 14:28:48;;;;;;;;;7.00;7.00;;;;;;;;5094416;27;45567;-73
2022/06/17 14:31:33;;;;;;;;;9.67;8.00;;;;;;;;5048430;28;46135;-72
2022/06/17 14:34:07;;;;;;;;;8.00;8.00;;;;;;;;5052975;28;45671;-73
2022/06/17 14:36:44;;;;;;;;;9.67;8.00;;;;;;;;5052672;28;46565;-73
2022/06/17 14:39:20;;;;;;;;;8.00;7.50;;;;;;;;5052975;28;45576;-73
2022/06/17 14:42:02;;;;;;;;;9.25;9.25;;;;;;;;5049415;28;47315;-73
2022/06/17 14:44:36;;;;;;;;;7.25;7.25;;;;;;;;5051631;28;45407;-73
2022/06/17 14:47:20;;;;;;;;;7.00;7.00;;;;;;;;5050406;28;45458;-72
2022/06/17 14:50:00;;;;;;;;;8.00;8.00;;;;;;;;5047403;28;45549;-73
2022/06/17 14:52:28;;;;;;;;;7.33;7.00;;;;;;;;5052663;28;46059;-73
2022/06/17 14:55:02;;;;;;;;;10.25;8.75;;;;;;;;5047402;28;47154;-73
2022/06/17 14:57:29;;;;;;;;;6.33;6.33;;;;;;;;5052644;28;45589;-73
2022/06/17 15:00:03;;;;;;;;;7.67;7.67;;;;;;;;5052568;28;45387;-73
2022/06/17 15:02:38;;;;;;;;;7.75;7.75;;;;;;;;5051775;28;47268;-73
2022/06/17 15:05:05;;;;;;;;;8.25;8.25;;;;;;;;5042374;28;45537;-73
2022/06/17 15:07:39;;;;;;;;;8.00;7.50;;;;;;;;5067926;27;45478;-73
2022/06/17 15:10:15;;;;;;;;;7.67;7.00;;;;;;;;5096793;27;45536;-73
2022/06/17 15:12:46;;;;;;;;;7.00;7.00;;;;;;;;5106759;27;46267;-73
2022/06/17 15:15:13;;;;;;;;;7.00;7.00;;;;;;;;5093397;27;45468;-72
2022/06/17 15:17:42;;;;;;;;;6.00;6.00;;;;;;;;5095542;27;45379;-73